X  Zamknij Lotniskowe dane METAR     ENRY Moss Airport, Rygge
Temperatura
14°C Temperatura
13°C Punkt rosy
94% Wilgotność



Wiatr
4 M/S
9 MPH
14 KM/H
8 KTS



130°
SE
Warunki bieżące

Częściowe zachmurzenie Częściowe zachmurzenie
Ciśnienie 1007.79 (hPa) - 29.76 (inHg)
Widoczność 6 (mil) - 9.7 (km)
Lotnisko
Kod lotniska ENRY

Położenie: Moss Airport, Rygge
Odległość: 12 (km)

Metar:
ENRY 150220Z AUTO 13008KT 9999 FEW019/// SCT025/// BKN049/// 14/13 Q1008

Czas: 15-07-2024 04:20 CEST